Time;durP1;ratioP1;P1;durP2;ratioP2;P2;SDS_P1;SDS_P2;PMS_P1;PMS_P2;Temp;Humidity;BMP_temperature;BMP_pressure;BME280_temperature;BME280_humidity;BME280_pressure;Samples;Min_cycle;Max_cycle;Signal;HPM_P1;HPM_P2
2023/06/13 00:01:14;;;;;;;2.57;1.37;;;;;;;10.42;70.00;100549.91;4243676;28;21675;-72
2023/06/13 00:03:40;;;;;;;2.50;1.70;;;;;;;10.37;70.24;100544.94;4245227;28;20242;-70
2023/06/13 00:06:09;;;;;;;4.27;2.00;;;;;;;10.35;70.32;100546.06;4236584;28;20628;-72
2023/06/13 00:08:35;;;;;;;2.73;1.50;;;;;;;10.33;70.79;100548.03;4246212;28;21474;-70
2023/06/13 00:11:02;;;;;;;4.23;1.63;;;;;;;10.27;70.56;100542.19;4248381;28;20232;-66
2023/06/13 00:13:29;;;;;;;3.30;1.70;;;;;;;10.30;70.79;100543.78;4246644;28;20364;-67
2023/06/13 00:15:58;;;;;;;2.73;1.63;;;;;;;10.23;71.04;100551.59;4230313;28;20553;-67
2023/06/13 00:18:29;;;;;;;3.83;1.93;;;;;;;10.24;70.94;100547.91;4227718;28;20896;-69
2023/06/13 00:20:55;;;;;;;4.63;1.60;;;;;;;10.25;70.99;100538.78;4232262;28;22844;-68
2023/06/13 00:23:22;;;;;;;6.03;2.17;;;;;;;10.38;70.68;100545.78;4228173;28;20235;-69
2023/06/13 00:25:49;;;;;;;4.93;2.17;;;;;;;10.33;70.85;100542.63;4220319;28;20331;-71
2023/06/13 00:28:16;;;;;;;6.20;2.50;;;;;;;10.26;71.44;100537.78;4237957;28;20259;-67
2023/06/13 00:30:43;;;;;;;5.23;2.80;;;;;;;10.15;71.77;100537.91;4234405;28;20234;-71
2023/06/13 00:33:17;;;;;;;5.73;3.17;;;;;;;10.19;71.92;100533.06;4245714;28;23513;-67
2023/06/13 00:35:44;;;;;;;6.93;3.30;;;;;;;10.21;71.63;100526.53;4229344;28;21826;-66
2023/06/13 00:38:12;;;;;;;5.97;3.00;;;;;;;10.25;71.58;100530.66;4233144;28;20232;-68
2023/06/13 00:40:39;;;;;;;6.20;2.90;;;;;;;10.22;71.86;100525.53;4229704;28;21730;-68
2023/06/13 00:43:06;;;;;;;7.67;3.37;;;;;;;10.17;72.16;100517.00;4222392;28;20229;-66
2023/06/13 00:45:34;;;;;;;9.77;3.53;;;;;;;10.12;72.50;100520.13;4230195;28;20243;-66
2023/06/13 00:48:05;;;;;;;7.33;3.20;;;;;;;10.05;73.31;100512.72;4234726;28;20619;-63
2023/06/13 00:50:34;;;;;;;5.73;3.20;;;;;;;10.01;73.77;100516.72;4221694;28;20298;-62
2023/06/13 00:53:03;;;;;;;10.27;3.07;;;;;;;10.10;73.53;100513.16;4246409;28;20343;-64
2023/06/13 00:55:30;;;;;;;9.30;3.80;;;;;;;10.04;73.96;100511.88;4225152;28;20282;-65
2023/06/13 00:57:58;;;;;;;6.27;3.23;;;;;;;10.05;73.97;100512.72;4233181;28;20298;-63
2023/06/13 01:00:26;;;;;;;5.83;2.83;;;;;;;10.03;74.08;100506.63;4230172;28;20245;-65
2023/06/13 01:02:59;;;;;;;6.67;3.03;;;;;;;9.99;74.31;100509.59;4226876;28;21821;-65
2023/06/13 01:05:30;;;;;;;7.30;3.30;;;;;;;9.96;74.48;100501.78;4204852;28;20341;-66
2023/06/13 01:07:58;;;;;;;6.40;3.10;;;;;;;9.90;74.59;100496.91;4231659;28;20232;-65
2023/06/13 01:10:29;;;;;;;5.63;2.70;;;;;;;9.97;74.63;100505.31;4216455;28;22714;-64
2023/06/13 01:13:08;;;;;;;8.73;3.20;;;;;;;10.00;74.67;100499.63;4217435;28;20297;-65
2023/06/13 01:15:38;;;;;;;9.07;3.40;;;;;;;10.02;74.53;100491.38;4219743;28;20378;-63
2023/06/13 01:18:07;;;;;;;5.40;2.90;;;;;;;10.07;74.60;100499.91;4236786;28;20698;-66
2023/06/13 01:20:34;;;;;;;4.63;2.67;;;;;;;10.10;74.41;100500.47;4236127;28;20250;-65
2023/06/13 01:23:03;;;;;;;6.50;2.90;;;;;;;10.09;74.64;100498.75;4234380;28;20356;-66
2023/06/13 01:25:52;;;;;;;5.43;2.87;;;;;;;10.07;74.53;100498.06;4232315;28;20649;-66
2023/06/13 01:28:20;;;;;;;5.40;2.60;;;;;;;10.14;74.50;100488.38;4223992;28;20319;-65
2023/06/13 01:30:47;;;;;;;7.13;3.07;;;;;;;10.10;74.86;100500.47;4232806;28;20243;-63
2023/06/13 01:33:16;;;;;;;6.47;2.80;;;;;;;10.16;74.67;100496.34;4244141;28;20313;-63
2023/06/13 01:35:42;;;;;;;5.13;2.80;;;;;;;10.23;74.35;100489.38;4218599;28;21900;-65
2023/06/13 01:38:09;;;;;;;6.00;2.57;;;;;;;10.26;74.38;100482.81;4216217;28;20799;-62
2023/06/13 01:40:36;;;;;;;4.53;2.70;;;;;;;10.34;74.17;100488.34;4232354;28;20236;-63
2023/06/13 01:43:02;;;;;;;5.40;2.83;;;;;;;10.31;74.40;100485.94;4243298;28;21221;-63
2023/06/13 01:45:29;;;;;;;4.93;2.40;;;;;;;10.29;74.39;100477.13;4211884;28;21154;-66
2023/06/13 01:48:00;;;;;;;4.07;2.70;;;;;;;10.34;74.44;100484.81;4237175;28;20231;-64
2023/06/13 01:50:40;;;;;;;7.37;2.90;;;;;;;10.27;74.92;100487.22;4242355;28;20893;-64
2023/06/13 01:53:14;;;;;;;5.13;2.90;;;;;;;10.26;75.22;100482.81;4232672;28;23526;-66
2023/06/13 01:55:45;;;;;;;6.00;2.97;;;;;;;10.31;75.20;100486.78;4218860;28;20285;-66
2023/06/13 01:58:24;;;;;;;4.50;2.40;;;;;;;10.49;74.40;100488.81;4233185;28;20705;-64
2023/06/13 02:00:51;;;;;;;6.87;3.00;;;;;;;10.56;74.17;100483.63;4227956;28;20239;-65
2023/06/13 02:03:18;;;;;;;5.17;2.67;;;;;;;10.45;74.45;100482.81;4232799;28;21206;-64
2023/06/13 02:05:47;;;;;;;6.50;2.83;;;;;;;10.52;74.36;100479.53;4229474;28;20227;-63
2023/06/13 02:08:13;;;;;;;5.30;2.60;;;;;;;10.53;74.45;100479.38;4240790;28;20530;-66
2023/06/13 02:10:40;;;;;;;5.40;2.80;;;;;;;10.58;74.53;100478.94;4237925;28;20279;-64
2023/06/13 02:13:06;;;;;;;10.17;3.07;;;;;;;10.42;75.33;100475.00;4217993;28;20235;-67
2023/06/13 02:15:33;;;;;;;7.27;2.97;;;;;;;10.46;75.41;100475.53;4248881;28;20241;-66
2023/06/13 02:18:00;;;;;;;9.50;2.83;;;;;;;10.56;75.02;100470.09;4230840;28;20234;-66
2023/06/13 02:20:26;;;;;;;8.70;3.40;;;;;;;10.45;75.49;100476.53;4216459;28;20246;-64
2023/06/13 02:22:53;;;;;;;6.00;3.33;;;;;;;10.43;75.70;100465.88;4230494;28;20237;-63
2023/06/13 02:25:20;;;;;;;4.70;3.20;;;;;;;10.40;75.99;100473.44;4238988;28;20301;-63
2023/06/13 02:27:46;;;;;;;5.37;3.00;;;;;;;10.38;76.34;100479.00;4230496;28;20230;-63
2023/06/13 02:30:13;;;;;;;7.33;3.30;;;;;;;10.28;76.93;100478.13;4233699;28;20244;-63
2023/06/13 02:32:40;;;;;;;7.73;2.97;;;;;;;10.31;77.28;100480.50;4229985;28;20297;-67
2023/06/13 02:35:10;;;;;;;7.33;3.17;;;;;;;10.35;77.37;100478.41;4223391;28;21473;-66
2023/06/13 02:37:37;;;;;;;8.33;4.40;;;;;;;10.35;77.51;100481.09;4233815;28;21717;-64
2023/06/13 02:40:10;;;;;;;5.67;3.20;;;;;;;10.26;78.05;100475.56;4239822;28;20232;-67
2023/06/13 02:42:37;;;;;;;7.77;3.40;;;;;;;10.13;79.19;100483.97;4219706;28;22491;-63
2023/06/13 02:45:03;;;;;;;6.97;3.57;;;;;;;10.11;79.63;100471.59;4218858;28;22982;-66
2023/06/13 02:47:30;;;;;;;6.47;3.37;;;;;;;10.12;79.86;100481.41;4225177;28;21100;-63
2023/06/13 02:49:57;;;;;;;9.70;3.07;;;;;;;10.05;80.19;100473.00;4237071;28;21121;-64
2023/06/13 02:52:23;;;;;;;9.20;3.83;;;;;;;10.11;80.58;100479.72;4223854;28;20231;-66
2023/06/13 02:54:50;;;;;;;8.90;3.23;;;;;;;10.16;80.61;100474.72;4233778;28;20303;-62
2023/06/13 02:57:16;;;;;;;10.93;3.47;;;;;;;10.21;80.36;100468.88;4216156;28;20236;-66
2023/06/13 02:59:43;;;;;;;7.37;3.47;;;;;;;10.29;79.94;100471.72;4226571;28;20229;-63
2023/06/13 03:02:09;;;;;;;6.57;3.47;;;;;;;10.26;80.35;100467.44;4249212;28;20368;-67
2023/06/13 03:04:36;;;;;;;4.93;3.13;;;;;;;10.31;80.11;100462.44;4235341;28;22127;-66
2023/06/13 03:07:05;;;;;;;7.43;3.50;;;;;;;10.33;80.39;100472.28;4220094;28;20273;-65
2023/06/13 03:09:32;;;;;;;6.87;3.63;;;;;;;10.20;80.70;100476.13;4222305;28;20250;-64
2023/06/13 03:11:59;;;;;;;5.70;3.77;;;;;;;10.23;80.76;100473.13;4220389;28;20635;-63
2023/06/13 03:14:26;;;;;;;7.17;3.23;;;;;;;10.26;80.51;100467.44;4223743;28;20232;-64
2023/06/13 03:16:52;;;;;;;10.27;3.93;;;;;;;10.31;80.54;100478.69;4235771;28;20270;-64
2023/06/13 03:19:19;;;;;;;8.93;4.03;;;;;;;10.27;80.75;100474.53;4227717;28;20240;-64
2023/06/13 03:21:46;;;;;;;7.70;3.70;;;;;;;10.20;81.01;100469.88;4228377;28;20237;-63
2023/06/13 03:24:14;;;;;;;6.03;3.50;;;;;;;10.24;80.61;100468.56;4232565;28;20232;-65
2023/06/13 03:26:40;;;;;;;12.03;3.83;;;;;;;10.26;80.70;100472.00;4237911;28;20664;-67
2023/06/13 03:29:07;;;;;;;6.70;3.80;;;;;;;10.25;81.17;100468.44;4234742;28;20377;-64
2023/06/13 03:31:33;;;;;;;7.57;4.03;;;;;;;10.37;80.63;100479.13;4228411;28;20290;-64
2023/06/13 03:34:00;;;;;;;7.90;4.00;;;;;;;10.27;81.48;100471.84;4257668;28;20551;-64
2023/06/13 03:36:27;;;;;;;5.63;3.60;;;;;;;10.30;81.72;100470.72;4257602;28;20229;-62
2023/06/13 03:38:54;;;;;;;6.70;4.07;;;;;;;10.31;81.59;100466.97;4256913;28;20231;-64
2023/06/13 03:41:20;;;;;;;8.90;4.10;;;;;;;10.26;81.99;100469.28;4226258;28;20220;-66
2023/06/13 03:43:47;;;;;;;6.17;4.10;;;;;;;10.33;81.89;100473.13;4264074;28;21639;-64
2023/06/13 03:46:14;;;;;;;7.70;4.10;;;;;;;10.23;82.43;100467.72;4238695;28;20235;-69
2023/06/13 03:48:41;;;;;;;7.00;4.07;;;;;;;10.28;82.62;100470.00;4240771;28;20603;-64
2023/06/13 03:51:08;;;;;;;10.30;3.57;;;;;;;10.24;82.94;100465.84;4230962;28;20294;-65
2023/06/13 03:53:35;;;;;;;8.60;4.43;;;;;;;10.21;82.99;100463.47;4243232;28;20325;-69
2023/06/13 03:56:02;;;;;;;6.13;4.07;;;;;;;10.23;83.17;100467.72;4240138;28;20246;-66
2023/06/13 03:58:29;;;;;;;11.07;4.53;;;;;;;10.15;83.62;100465.75;4237688;28;20266;-69
2023/06/13 04:00:57;;;;;;;7.63;4.63;;;;;;;10.08;84.65;100461.88;4234172;28;20267;-65
2023/06/13 04:03:23;;;;;;;9.73;4.27;;;;;;;10.12;85.46;100462.47;4246235;28;20281;-63
2023/06/13 04:05:50;;;;;;;9.10;4.70;;;;;;;10.12;85.58;100465.19;4237741;28;21064;-63
2023/06/13 04:08:19;;;;;;;7.50;4.83;;;;;;;10.05;85.99;100470.31;4244942;28;20627;-64
2023/06/13 04:10:46;;;;;;;12.23;5.20;;;;;;;9.98;86.38;100471.88;4228668;28;20264;-64
2023/06/13 04:13:13;;;;;;;8.70;4.90;;;;;;;9.99;87.35;100463.59;4253424;28;20270;-64
2023/06/13 04:15:40;;;;;;;10.53;5.27;;;;;;;9.95;87.17;100458.63;4231178;28;22275;-65
2023/06/13 04:18:06;;;;;;;8.10;5.40;;;;;;;9.90;87.48;100459.06;4251347;28;20294;-64
2023/06/13 04:20:34;;;;;;;8.17;5.00;;;;;;;9.95;87.72;100458.63;4243708;28;21090;-65
2023/06/13 04:23:01;;;;;;;12.10;5.77;;;;;;;9.94;87.45;100456.91;4226801;28;20267;-68
2023/06/13 04:25:27;;;;;;;9.37;5.60;;;;;;;9.81;88.46;100449.97;4279473;28;20305;-66
2023/06/13 04:27:57;;;;;;;10.07;5.30;;;;;;;9.87;89.76;100448.53;4230855;28;20406;-67
2023/06/13 04:30:25;;;;;;;10.30;6.07;;;;;;;9.87;89.01;100448.53;4226206;28;20284;-67
2023/06/13 04:32:51;;;;;;;12.13;6.67;;;;;;;9.87;89.52;100451.25;4242629;28;20227;-62
2023/06/13 04:35:21;;;;;;;10.57;5.90;;;;;;;9.86;89.62;100456.81;4236459;28;20694;-64
2023/06/13 04:37:48;;;;;;;9.30;6.03;;;;;;;9.92;89.83;100456.22;4236026;28;21346;-69
2023/06/13 04:40:16;;;;;;;10.40;5.90;;;;;;;9.99;89.80;100457.38;4231947;28;20282;-66
2023/06/13 04:42:51;;;;;;;11.17;6.47;;;;;;;9.97;90.09;100448.53;4219441;28;20240;-66
2023/06/13 04:45:20;;;;;;;12.17;6.47;;;;;;;10.03;89.49;100449.81;4227022;28;20315;-67
2023/06/13 04:47:48;;;;;;;8.47;5.73;;;;;;;9.98;89.60;100452.94;4234969;28;20300;-67
2023/06/13 04:50:25;;;;;;;13.73;6.00;;;;;;;10.00;89.20;100456.38;4231385;28;20313;-66
2023/06/13 04:52:53;;;;;;;11.73;6.67;;;;;;;9.98;89.28;100453.78;4239147;28;20234;-67
2023/06/13 04:55:22;;;;;;;10.87;6.50;;;;;;;9.98;89.24;100461.06;4235234;28;20243;-66
2023/06/13 04:57:49;;;;;;;9.77;6.10;;;;;;;9.99;88.61;100462.78;4237963;28;23497;-68
2023/06/13 05:00:16;;;;;;;14.00;6.37;;;;;;;9.95;89.67;100455.91;4237781;28;20272;-69
2023/06/13 05:02:45;;;;;;;9.70;6.03;;;;;;;9.95;89.96;100451.38;4220801;28;20326;-67
2023/06/13 05:05:16;;;;;;;11.37;6.43;;;;;;;9.91;90.24;100459.94;4228654;28;20233;-66
2023/06/13 05:07:43;;;;;;;11.57;6.07;;;;;;;9.92;90.46;100461.63;4245185;28;20236;-65
2023/06/13 05:10:10;;;;;;;9.70;6.20;;;;;;;9.88;90.58;100462.91;4234271;28;20319;-67
2023/06/13 05:12:40;;;;;;;12.63;6.30;;;;;;;9.96;90.33;100458.50;4223814;28;20240;-68
2023/06/13 05:15:07;;;;;;;9.43;6.37;;;;;;;9.82;91.42;100450.78;4243531;28;21646;-65
2023/06/13 05:17:34;;;;;;;11.13;6.70;;;;;;;9.80;91.66;100458.22;4241314;28;20270;-66
2023/06/13 05:20:01;;;;;;;11.90;6.23;;;;;;;9.82;91.59;100458.91;4233404;28;20230;-65
2023/06/13 05:22:28;;;;;;;10.30;6.10;;;;;;;9.86;91.79;100463.06;4268154;28;20246;-67
2023/06/13 05:24:59;;;;;;;9.93;6.67;;;;;;;9.84;92.32;100462.34;4254008;28;22964;-65
2023/06/13 05:27:26;;;;;;;11.13;6.67;;;;;;;9.87;92.40;100456.66;4239313;28;21797;-67
2023/06/13 05:29:53;;;;;;;11.57;6.83;;;;;;;10.00;92.07;100456.38;4242140;28;21622;-67
2023/06/13 05:32:20;;;;;;;12.93;6.93;;;;;;;9.92;91.93;100456.22;4247848;28;20237;-69
2023/06/13 05:34:47;;;;;;;11.10;7.20;;;;;;;9.92;91.67;100453.53;4244062;28;20227;-69
2023/06/13 05:37:14;;;;;;;15.43;7.20;;;;;;;9.99;92.33;100457.38;4221354;28;20238;-67
2023/06/13 05:39:41;;;;;;;12.27;7.17;;;;;;;10.04;92.41;100456.94;4237154;28;20243;-69
2023/06/13 05:42:08;;;;;;;11.73;7.37;;;;;;;10.05;91.79;100461.31;4238667;28;20366;-66
2023/06/13 05:44:35;;;;;;;13.47;7.43;;;;;;;10.06;91.26;100452.22;4228079;28;20557;-66
2023/06/13 05:47:02;;;;;;;11.93;7.30;;;;;;;10.03;91.99;100461.47;4211828;28;20597;-65
2023/06/13 05:49:29;;;;;;;12.27;7.33;;;;;;;10.06;92.48;100455.78;4232118;28;20663;-66
2023/06/13 05:51:56;;;;;;;13.00;6.53;;;;;;;10.08;91.96;100458.34;4220977;28;21986;-67
2023/06/13 05:54:22;;;;;;;14.77;8.23;;;;;;;10.05;92.63;100462.19;4226526;28;21787;-66
2023/06/13 05:56:49;;;;;;;14.80;8.03;;;;;;;10.10;92.69;100453.66;4227602;28;20243;-71
2023/06/13 05:59:15;;;;;;;16.83;7.93;;;;;;;10.02;92.59;100459.75;4221267;28;20245;-67
2023/06/13 06:01:42;;;;;;;12.27;7.40;;;;;;;10.03;92.90;100450.66;4239585;28;20691;-66
2023/06/13 06:04:09;;;;;;;15.07;7.93;;;;;;;10.05;92.41;100459.50;4231838;28;20238;-70
2023/06/13 06:06:36;;;;;;;15.03;7.97;;;;;;;10.01;93.10;100454.50;4225329;28;20232;-67
2023/06/13 06:09:03;;;;;;;16.30;7.67;;;;;;;9.95;93.11;100455.91;4215026;28;20231;-67
2023/06/13 06:11:33;;;;;;;12.73;7.70;;;;;;;10.09;93.13;100463.59;4238738;28;20247;-67
2023/06/13 06:14:01;;;;;;;14.77;7.73;;;;;;;10.05;93.22;100451.38;4228912;28;20255;-67
2023/06/13 06:16:27;;;;;;;13.90;8.23;;;;;;;10.06;93.19;100455.78;4226781;28;20572;-66
2023/06/13 06:18:54;;;;;;;13.33;7.63;;;;;;;10.16;93.09;100458.47;4233661;28;20382;-68
2023/06/13 06:21:21;;;;;;;12.47;7.83;;;;;;;10.18;93.45;100458.31;4239204;28;20560;-68
2023/06/13 06:23:47;;;;;;;15.37;8.03;;;;;;;10.15;93.53;100462.19;4221380;28;21716;-68
2023/06/13 06:26:14;;;;;;;13.37;8.73;;;;;;;10.11;93.41;100460.78;4232708;28;20235;-67
2023/06/13 06:28:41;;;;;;;15.63;8.57;;;;;;;10.23;92.19;100461.47;4222415;28;21126;-67
2023/06/13 06:31:08;;;;;;;12.47;8.13;;;;;;;10.23;92.24;100448.78;4232349;28;21575;-68
2023/06/13 06:33:35;;;;;;;13.80;8.53;;;;;;;10.19;92.20;100452.78;4227144;28;20232;-68
2023/06/13 06:36:02;;;;;;;12.93;8.37;;;;;;;10.15;93.23;100464.88;4218570;28;20239;-67
2023/06/13 06:38:28;;;;;;;12.87;8.00;;;;;;;10.24;93.51;100458.63;4224110;28;20331;-68
2023/06/13 06:40:55;;;;;;;15.60;8.57;;;;;;;10.27;91.97;100447.47;4209999;28;22111;-66
2023/06/13 06:43:22;;;;;;;12.67;8.00;;;;;;;10.28;92.08;100446.50;4230685;28;20263;-69
2023/06/13 06:45:48;;;;;;;12.40;7.90;;;;;;;10.22;91.73;100454.34;4237966;28;20713;-66
2023/06/13 06:48:15;;;;;;;13.00;7.57;;;;;;;10.34;91.79;100452.34;4210054;28;20573;-67
2023/06/13 06:50:42;;;;;;;14.97;7.80;;;;;;;10.37;90.50;100450.22;4223024;28;20243;-67
2023/06/13 06:53:08;;;;;;;10.40;7.50;;;;;;;10.23;90.88;100445.25;4235676;28;20616;-69
2023/06/13 06:55:35;;;;;;;9.33;6.90;;;;;;;10.37;90.43;100462.88;4231847;28;20233;-67
2023/06/13 06:58:01;;;;;;;13.17;8.47;;;;;;;10.37;90.51;100447.53;4218523;28;20240;-67
2023/06/13 07:00:28;;;;;;;12.43;7.80;;;;;;;10.36;91.12;100456.59;4224876;28;20274;-68
2023/06/13 07:02:55;;;;;;;10.30;7.67;;;;;;;10.34;90.81;100447.75;4235959;28;21211;-68
2023/06/13 07:05:22;;;;;;;11.60;7.80;;;;;;;10.27;91.76;100450.19;4224013;28;21035;-67
2023/06/13 07:07:48;;;;;;;12.40;7.80;;;;;;;10.48;90.58;100451.03;4226317;28;21779;-71
2023/06/13 07:10:15;;;;;;;11.07;7.30;;;;;;;10.55;90.06;100446.75;4235797;28;20392;-66
2023/06/13 07:12:42;;;;;;;11.33;7.13;;;;;;;10.63;89.59;100457.69;4225320;28;21262;-69
2023/06/13 07:15:09;;;;;;;12.43;7.87;;;;;;;10.55;90.11;100447.63;4213324;28;20233;-69
2023/06/13 07:17:35;;;;;;;13.67;7.50;;;;;;;10.57;90.13;100452.88;4226529;28;20892;-67
2023/06/13 07:20:05;;;;;;;18.20;7.30;;;;;;;10.73;89.70;100458.53;4220054;28;22301;-69
2023/06/13 07:22:32;;;;;;;11.17;7.20;;;;;;;10.61;89.99;100455.13;4224348;28;20305;-68
2023/06/13 07:24:58;;;;;;;11.80;7.50;;;;;;;10.60;90.03;100460.72;4219554;28;22038;-69
2023/06/13 07:27:25;;;;;;;12.03;7.27;;;;;;;10.73;90.12;100457.66;4221265;28;20390;-68
2023/06/13 07:29:51;;;;;;;12.40;7.67;;;;;;;10.71;88.73;100452.38;4211367;28;22772;-70
2023/06/13 07:32:18;;;;;;;11.87;7.07;;;;;;;10.72;88.98;100447.84;4222833;28;20605;-69
2023/06/13 07:34:45;;;;;;;11.53;7.70;;;;;;;10.76;90.33;100441.97;4226332;28;20225;-68
2023/06/13 07:37:30;;;;;;;12.83;7.27;;;;;;;10.76;89.55;100447.38;4235013;28;20231;-68
2023/06/13 07:39:57;;;;;;;10.97;7.17;;;;;;;10.97;88.67;100442.72;4223398;28;20243;-68
2023/06/13 07:42:24;;;;;;;10.67;7.70;;;;;;;10.88;89.04;100434.50;4229017;28;21191;-67
2023/06/13 07:44:50;;;;;;;13.77;7.43;;;;;;;11.02;88.35;100435.88;4229223;28;21020;-69
2023/06/13 07:47:17;;;;;;;15.27;7.93;;;;;;;11.08;88.78;100443.38;4220771;28;20314;-69
2023/06/13 07:49:43;;;;;;;12.07;7.93;;;;;;;11.00;87.93;100435.16;4235624;28;20268;-68
2023/06/13 07:52:10;;;;;;;18.07;8.57;;;;;;;11.03;88.57;100431.28;4224809;28;22214;-70
2023/06/13 07:54:37;;;;;;;14.30;8.10;;;;;;;10.94;88.06;100433.94;4221443;28;20241;-69
2023/06/13 07:57:04;;;;;;;13.70;8.57;;;;;;;11.01;88.78;100441.44;4226109;28;20310;-68
2023/06/13 07:59:50;;;;;;;14.73;8.13;;;;;;;11.13;88.35;100433.97;4230355;28;20357;-73
2023/06/13 08:02:17;;;;;;;14.23;7.87;;;;;;;11.14;89.04;100438.41;4222491;28;20231;-70
2023/06/13 08:04:44;;;;;;;12.63;7.97;;;;;;;11.25;88.67;100432.75;4220299;28;20290;-68
2023/06/13 08:07:20;;;;;;;16.70;8.30;;;;;;;11.37;88.89;100441.53;4238356;28;23060;-67
2023/06/13 08:09:47;;;;;;;14.53;8.30;;;;;;;11.40;87.62;100431.22;4252448;28;20245;-68
2023/06/13 08:12:14;;;;;;;15.13;8.17;;;;;;;11.36;87.37;100428.97;4256616;28;20627;-69
2023/06/13 08:14:40;;;;;;;11.40;7.47;;;;;;;11.48;86.40;100429.59;4242227;28;20235;-68
2023/06/13 08:17:07;;;;;;;12.83;7.53;;;;;;;11.57;86.45;100420.56;4240994;28;20241;-67
2023/06/13 08:19:34;;;;;;;11.87;7.53;;;;;;;11.66;86.22;100426.91;4237556;28;20249;-66
2023/06/13 08:22:00;;;;;;;11.20;7.40;;;;;;;11.78;84.88;100425.69;4231221;28;20332;-69
2023/06/13 08:24:27;;;;;;;13.07;7.40;;;;;;;11.89;84.31;100424.59;4237623;28;22057;-68
2023/06/13 08:26:54;;;;;;;12.00;6.60;;;;;;;12.14;83.01;100430.22;4239146;28;20589;-67
2023/06/13 08:29:23;;;;;;;9.33;6.17;;;;;;;12.17;81.95;100432.63;4265288;28;23485;-65
2023/06/13 08:31:50;;;;;;;9.87;6.20;;;;;;;12.29;81.43;100431.34;4241037;28;20373;-67
2023/06/13 08:34:16;;;;;;;9.67;6.20;;;;;;;12.49;79.79;100428.44;4229040;28;20239;-67
2023/06/13 08:36:43;;;;;;;9.17;5.33;;;;;;;12.46;80.11;100429.59;4247971;28;20234;-68
2023/06/13 08:39:10;;;;;;;10.00;5.53;;;;;;;12.40;79.91;100430.25;4254285;28;20242;-69
2023/06/13 08:41:37;;;;;;;10.40;5.27;;;;;;;12.41;80.57;100431.94;4244071;28;20305;-70
2023/06/13 08:44:05;;;;;;;7.37;5.23;;;;;;;12.44;80.11;100423.50;4265056;28;20400;-68
2023/06/13 08:46:33;;;;;;;7.33;5.27;;;;;;;12.38;81.16;100425.97;4229485;28;20232;-66
2023/06/13 08:49:00;;;;;;;7.57;5.10;;;;;;;12.38;80.38;100429.56;4252664;28;20702;-66
2023/06/13 08:51:29;;;;;;;8.00;4.77;;;;;;;12.44;80.53;100422.63;4237799;28;20242;-67
2023/06/13 08:53:59;;;;;;;9.07;5.57;;;;;;;12.43;80.09;100424.50;4255517;28;20776;-66
2023/06/13 08:56:28;;;;;;;8.67;5.80;;;;;;;12.41;81.53;100426.50;4249396;28;20293;-73
2023/06/13 08:58:58;;;;;;;9.43;4.87;;;;;;;12.75;80.10;100431.13;4247254;28;20344;-67
2023/06/13 09:01:27;;;;;;;10.13;5.43;;;;;;;12.93;79.58;100433.78;4236829;28;20305;-70
2023/06/13 09:03:56;;;;;;;8.23;5.63;;;;;;;12.89;78.92;100431.53;4237275;28;20231;-67
2023/06/13 09:06:23;;;;;;;7.53;4.90;;;;;;;12.77;78.20;100428.25;4241447;28;20321;-69
2023/06/13 09:08:53;;;;;;;6.87;4.70;;;;;;;12.89;77.74;100432.38;4234497;28;20236;-70
2023/06/13 09:11:20;;;;;;;7.60;4.93;;;;;;;13.00;77.64;100426.66;4223043;28;20567;-67
2023/06/13 09:13:47;;;;;;;8.67;5.53;;;;;;;13.02;77.53;100437.38;4258856;28;20526;-69
2023/06/13 09:16:14;;;;;;;7.30;5.10;;;;;;;13.13;77.29;100434.38;4254095;28;21262;-69
2023/06/13 09:18:43;;;;;;;8.23;5.03;;;;;;;13.20;77.56;100420.09;4264646;28;20230;-70
2023/06/13 09:21:10;;;;;;;8.63;5.63;;;;;;;13.23;76.84;100422.47;4240230;28;20366;-68
2023/06/13 09:23:38;;;;;;;8.43;5.23;;;;;;;13.28;75.97;100420.97;4252017;28;20250;-71
2023/06/13 09:26:05;;;;;;;7.40;5.23;;;;;;;13.27;76.11;100432.03;4251658;28;20360;-70
2023/06/13 09:28:37;;;;;;;7.70;4.87;;;;;;;13.17;76.24;100432.16;4223838;28;20235;-68
2023/06/13 09:31:04;;;;;;;7.10;4.87;;;;;;;13.15;76.53;100428.75;4240193;28;20368;-68
2023/06/13 09:33:30;;;;;;;10.97;5.53;;;;;;;13.09;77.71;100432.97;4240682;28;20237;-70
2023/06/13 09:35:57;;;;;;;11.17;5.47;;;;;;;13.25;77.64;100434.91;4261530;28;21661;-68
2023/06/13 09:38:28;;;;;;;7.97;5.40;;;;;;;13.28;77.12;100436.44;4247352;28;20247;-70
2023/06/13 09:40:56;;;;;;;9.40;5.70;;;;;;;13.21;76.97;100432.69;4229939;28;20238;-67
2023/06/13 09:43:23;;;;;;;8.00;5.53;;;;;;;13.19;78.26;100427.41;4246110;28;21669;-68
2023/06/13 09:45:51;;;;;;;9.57;5.57;;;;;;;13.06;78.18;100435.16;4242118;28;20702;-69
2023/06/13 09:48:18;;;;;;;9.37;5.83;;;;;;;13.03;79.02;100440.94;4211223;28;20394;-69
2023/06/13 09:50:44;;;;;;;13.23;5.93;;;;;;;13.04;78.51;100434.47;4244613;28;20235;-70
2023/06/13 09:53:11;;;;;;;8.27;5.50;;;;;;;13.11;78.26;100435.53;4251453;28;20600;-69
2023/06/13 09:55:38;;;;;;;11.80;5.70;;;;;;;13.06;78.21;100446.91;4250880;28;20697;-69
2023/06/13 09:58:05;;;;;;;8.37;5.77;;;;;;;13.15;78.30;100436.91;4238981;28;20228;-69
2023/06/13 10:00:34;;;;;;;10.03;5.70;;;;;;;13.10;78.09;100433.84;4240010;28;20231;-68
2023/06/13 10:03:02;;;;;;;8.43;5.70;;;;;;;13.19;78.07;100434.72;4245351;28;20238;-70
2023/06/13 10:05:46;;;;;;;9.50;6.10;;;;;;;13.39;77.62;100432.59;4247208;28;22032;-70
2023/06/13 10:08:13;;;;;;;11.73;6.13;;;;;;;13.50;76.05;100423.28;4248326;28;20401;-69
2023/06/13 10:10:40;;;;;;;9.57;6.00;;;;;;;13.56;76.35;100428.88;4260436;28;20367;-69
2023/06/13 10:13:10;;;;;;;9.50;6.00;;;;;;;13.45;76.74;100429.22;4247522;28;20270;-69
2023/06/13 10:15:51;;;;;;;9.23;6.47;;;;;;;13.42;77.24;100430.41;4235888;28;20630;-70
2023/06/13 10:18:21;;;;;;;8.07;6.43;;;;;;;13.26;78.15;100424.88;4241582;28;20249;-69
2023/06/13 10:20:49;;;;;;;12.53;7.07;;;;;;;13.27;77.79;100421.97;4246944;28;21197;-68
2023/06/13 10:23:18;;;;;;;10.67;6.57;;;;;;;13.35;77.41;100417.59;4246842;28;20221;-68
2023/06/13 10:25:48;;;;;;;12.63;7.30;;;;;;;13.35;77.48;100423.03;4252193;28;20235;-70
2023/06/13 10:28:43;;;;;;;10.97;7.40;;;;;;;13.25;77.70;100413.16;4235579;28;20240;-69
2023/06/13 10:31:26;;;;;;;11.27;7.37;;;;;;;13.40;77.53;100413.38;4256111;28;23329;-69
2023/06/13 10:34:03;;;;;;;11.87;7.80;;;;;;;13.45;76.97;100412.91;4273067;28;21889;-70
2023/06/13 10:36:50;;;;;;;15.20;7.00;;;;;;;13.50;77.22;100409.69;4227342;28;20226;-69
2023/06/13 10:39:50;;;;;;;11.13;7.57;;;;;;;13.56;77.06;100411.72;4242881;28;23912;-70
2023/06/13 10:42:22;;;;;;;9.53;7.00;;;;;;;13.61;76.92;100409.34;4247571;28;20243;-70
2023/06/13 10:45:00;;;;;;;12.00;7.27;;;;;;;13.61;77.18;100412.06;4243671;28;20228;-70
2023/06/13 10:47:30;;;;;;;9.80;7.10;;;;;;;13.73;76.70;100415.31;4259385;28;20396;-70
2023/06/13 10:49:57;;;;;;;11.47;7.33;;;;;;;14.05;75.29;100411.72;4234724;28;20346;-69
2023/06/13 10:52:24;;;;;;;9.73;7.00;;;;;;;14.17;74.71;100401.34;4244662;28;20239;-70
2023/06/13 10:54:55;;;;;;;10.30;6.27;;;;;;;14.62;72.76;100403.63;4244256;28;21100;-69
2023/06/13 10:57:22;;;;;;;10.93;6.70;;;;;;;15.27;71.13;100396.25;4260167;28;20574;-70
2023/06/13 10:59:50;;;;;;;8.67;6.40;;;;;;;15.74;68.43;100398.00;4260498;28;20326;-70
2023/06/13 11:02:18;;;;;;;8.27;6.20;;;;;;;15.83;68.69;100398.78;4245142;28;20337;-70
2023/06/13 11:04:51;;;;;;;9.60;6.50;;;;;;;15.88;68.57;100407.28;4248900;28;20226;-68
2023/06/13 11:07:21;;;;;;;11.50;6.40;;;;;;;15.27;70.07;100399.81;4217245;28;22116;-67
2023/06/13 11:10:16;;;;;;;9.47;6.50;;;;;;;14.97;70.51;100406.97;4254161;28;20438;-48
2023/06/13 11:12:44;;;;;;;8.87;5.80;;;;;;;14.78;72.01;100403.63;4256907;28;20537;-46
2023/06/13 11:15:39;;;;;;;8.07;6.07;;;;;;;14.90;70.94;100395.91;4223467;28;20241;-49
2023/06/13 11:18:09;;;;;;;9.90;5.50;;;;;;;14.95;70.20;100390.81;4269396;28;25876;-46
2023/06/13 11:20:58;;;;;;;9.33;5.60;;;;;;;14.97;70.66;100394.19;4274434;28;20225;-45
2023/06/13 11:23:33;;;;;;;7.77;5.83;;;;;;;14.82;70.76;100391.34;4250743;28;20238;-69
2023/06/13 11:26:00;;;;;;;8.57;6.27;;;;;;;15.03;70.44;100398.06;4262134;28;20395;-70
2023/06/13 11:28:27;;;;;;;8.73;5.77;;;;;;;15.41;69.80;100395.47;4259457;28;21785;-70